Time;durP1;ratioP1;P1;durP2;ratioP2;P2;SDS_P1;SDS_P2;PMS_P1;PMS_P2;Temp;Humidity;BMP_temperature;BMP_pressure;BME280_temperature;BME280_humidity;BME280_pressure;Samples;Min_cycle;Max_cycle;Signal;HPM_P1;HPM_P2
2022/11/30 00:01:10;;;;;;;80.27;72.17;;;;;;;4.72;100.00;102342.75;5092299;28;20991;-45
2022/11/30 00:03:38;;;;;;;80.73;72.23;;;;;;;4.72;100.00;102350.69;5091518;28;20429;-47
2022/11/30 00:06:07;;;;;;;92.33;75.00;;;;;;;4.72;100.00;102349.88;5092348;28;20484;-46
2022/11/30 00:08:35;;;;;;;83.43;74.33;;;;;;;4.73;100.00;102356.81;5092094;28;20933;-48
2022/11/30 00:11:08;;;;;;;82.23;73.73;;;;;;;4.73;100.00;102348.91;5092370;28;20851;-45
2022/11/30 00:13:36;;;;;;;89.60;76.30;;;;;;;4.71;100.00;102356.97;5091567;28;20464;-47
2022/11/30 00:16:04;;;;;;;82.00;72.93;;;;;;;4.71;100.00;102356.97;5092144;28;20847;-45
2022/11/30 00:18:33;;;;;;;84.37;73.97;;;;;;;4.73;100.00;102359.47;5092461;28;20433;-47
2022/11/30 00:21:01;;;;;;;91.20;74.90;;;;;;;4.74;100.00;102353.22;5091945;28;20968;-49
2022/11/30 00:23:32;;;;;;;95.33;78.20;;;;;;;4.73;100.00;102352.38;5091508;28;20434;-45
2022/11/30 00:26:02;;;;;;;83.67;74.10;;;;;;;4.75;100.00;102350.44;5092376;28;20828;-47
2022/11/30 00:28:31;;;;;;;84.87;75.77;;;;;;;4.75;100.00;102352.28;5091828;28;20483;-47
2022/11/30 00:30:59;;;;;;;83.87;74.77;;;;;;;4.76;100.00;102341.56;5092082;28;20454;-46
2022/11/30 00:33:27;;;;;;;85.37;76.20;;;;;;;4.76;100.00;102352.16;5091864;28;20469;-46
2022/11/30 00:35:57;;;;;;;89.67;73.67;;;;;;;4.76;100.00;102357.44;5091708;28;20449;-46
2022/11/30 00:38:25;;;;;;;87.10;77.93;;;;;;;4.74;100.00;102356.72;5092134;28;20433;-46
2022/11/30 00:40:53;;;;;;;84.83;75.77;;;;;;;4.73;100.00;102352.38;5091995;28;20480;-46
2022/11/30 00:43:20;;;;;;;85.77;76.47;;;;;;;4.75;100.00;102347.81;5093077;28;20437;-47
2022/11/30 00:45:48;;;;;;;87.47;78.30;;;;;;;4.74;100.00;102348.78;5095204;28;20465;-44
2022/11/30 00:48:16;;;;;;;86.57;77.23;;;;;;;4.74;100.00;102355.88;5096164;28;20482;-47
2022/11/30 00:50:43;;;;;;;96.63;77.93;;;;;;;4.74;100.00;102353.22;5095908;28;20478;-46
2022/11/30 00:53:12;;;;;;;87.07;77.70;;;;;;;4.71;100.00;102356.09;5095678;28;20995;-47
2022/11/30 00:55:40;;;;;;;95.17;80.53;;;;;;;4.73;100.00;102357.66;5095034;28;20461;-46
2022/11/30 00:58:08;;;;;;;91.77;81.07;;;;;;;4.73;100.00;102351.53;5095860;28;20443;-47
2022/11/30 01:00:35;;;;;;;88.43;77.60;;;;;;;4.72;100.00;102355.97;5095542;28;20847;-49
2022/11/30 01:03:03;;;;;;;90.30;77.70;;;;;;;4.71;100.00;102358.75;5095183;22;20493;-47
2022/11/30 01:05:33;;;;;;;85.47;76.13;;;;;;;4.71;100.00;102358.75;5057101;28;21019;-47
2022/11/30 01:08:00;;;;;;;90.73;80.57;;;;;;;4.69;100.00;102356.22;5054801;28;20497;-46
2022/11/30 01:10:30;;;;;;;88.33;73.80;;;;;;;4.70;100.00;102357.06;5055026;28;20442;-48
2022/11/30 01:12:57;;;;;;;91.43;81.03;;;;;;;4.69;100.00;102363.31;5054946;28;20502;-46
2022/11/30 01:15:25;;;;;;;92.60;78.50;;;;;;;4.67;100.00;102362.59;5054029;28;20459;-44
2022/11/30 01:17:53;;;;;;;89.17;74.30;;;;;;;4.69;100.00;102366.78;5054670;28;20435;-46
2022/11/30 01:20:20;;;;;;;85.20;73.53;;;;;;;4.69;100.00;102363.31;5054759;28;20435;-49
2022/11/30 01:22:48;;;;;;;90.97;74.23;;;;;;;4.68;100.00;102365.13;5054583;28;20505;-47
2022/11/30 01:25:15;;;;;;;98.47;78.40;;;;;;;4.70;100.00;102372.91;5068801;28;20462;-47
2022/11/30 01:27:48;;;;;;;86.07;76.67;;;;;;;4.73;100.00;102377.97;5074594;28;21083;-48
2022/11/30 01:30:16;;;;;;;92.33;78.40;;;;;;;4.74;100.00;102382.28;5074634;28;20439;-45
2022/11/30 01:32:44;;;;;;;96.60;77.90;;;;;;;4.75;100.00;102381.34;5074540;28;20477;-45
2022/11/30 01:35:11;;;;;;;97.63;80.93;;;;;;;4.76;100.00;102380.38;5073853;28;20462;-48
2022/11/30 01:37:39;;;;;;;83.30;73.97;;;;;;;4.78;100.00;102381.13;5074196;28;20955;-45
2022/11/30 01:40:08;;;;;;;101.70;82.03;;;;;;;4.79;100.00;102383.63;5073941;28;20438;-50
2022/11/30 01:42:36;;;;;;;89.83;75.17;;;;;;;4.79;100.00;102386.25;5074305;28;20807;-45
2022/11/30 01:45:12;;;;;;;92.97;77.90;;;;;;;4.79;100.00;102383.63;5073455;28;21000;-47
2022/11/30 01:47:43;;;;;;;90.03;78.30;;;;;;;4.79;100.00;102386.25;5074087;28;20480;-45
2022/11/30 01:50:15;;;;;;;98.53;79.57;;;;;;;4.79;100.00;102383.63;5074400;28;20491;-49
2022/11/30 01:52:44;;;;;;;110.50;82.67;;;;;;;4.81;100.00;102384.34;5073830;28;20474;-47
2022/11/30 01:55:19;;;;;;;88.87;78.30;;;;;;;4.84;100.00;102383.25;5072385;28;20458;-46
2022/11/30 01:57:50;;;;;;;96.67;78.90;;;;;;;4.84;100.00;102381.44;5073778;28;20417;-45
2022/11/30 02:00:20;;;;;;;92.93;77.00;;;;;;;4.85;100.00;102387.59;5074088;28;20438;-46
2022/11/30 02:02:56;;;;;;;93.30;76.57;;;;;;;4.86;100.00;102381.34;5073669;28;20458;-46
2022/11/30 02:05:25;;;;;;;93.60;76.03;;;;;;;4.87;100.00;102375.06;5073203;28;20988;-45
2022/11/30 02:07:53;;;;;;;83.77;73.37;;;;;;;4.88;100.00;102385.53;5073813;28;20426;-47
2022/11/30 02:10:26;;;;;;;83.23;74.30;;;;;;;4.89;100.00;102381.97;5073764;28;21125;-46
2022/11/30 02:13:23;;;;;;;89.70;77.57;;;;;;;4.93;100.00;102390.47;5073491;28;20481;-46
2022/11/30 02:16:00;;;;;;;91.93;75.97;;;;;;;4.95;100.00;102389.41;5073154;28;20519;-47
2022/11/30 02:18:38;;;;;;;93.80;74.20;;;;;;;4.94;100.00;102387.72;5073787;28;20525;-45
2022/11/30 02:21:12;;;;;;;88.30;75.07;;;;;;;4.98;100.00;102397.09;5073436;28;20426;-47
2022/11/30 02:24:00;;;;;;;86.17;74.03;;;;;;;5.00;100.00;102395.16;5072989;28;20421;-48
2022/11/30 02:26:42;;;;;;;81.57;72.73;;;;;;;5.01;100.00;102403.94;5073562;28;20433;-45
2022/11/30 02:29:19;;;;;;;82.23;73.60;;;;;;;5.01;100.00;102399.50;5073371;28;20442;-47
2022/11/30 02:31:54;;;;;;;78.90;70.40;;;;;;;5.04;100.00;102393.13;5073477;28;20450;-51
2022/11/30 02:34:26;;;;;;;81.30;71.70;;;;;;;5.03;100.00;102397.56;5072548;28;20466;-45
2022/11/30 02:36:56;;;;;;;89.07;75.07;;;;;;;5.04;100.00;102393.13;5073334;28;20551;-50
2022/11/30 02:39:23;;;;;;;82.47;73.73;;;;;;;5.01;100.00;102396.84;5073459;28;20441;-45
2022/11/30 02:41:51;;;;;;;88.73;74.93;;;;;;;5.02;100.00;102393.22;5073006;28;20875;-45
2022/11/30 02:44:22;;;;;;;91.10;74.87;;;;;;;4.99;100.00;102393.47;5072518;28;20836;-48
2022/11/30 02:47:00;;;;;;;84.57;72.80;;;;;;;4.99;100.00;102389.97;5073228;28;20484;-47
2022/11/30 02:49:37;;;;;;;84.97;73.80;;;;;;;4.99;100.00;102395.25;5073133;28;20438;-49
2022/11/30 02:52:06;;;;;;;87.63;75.27;;;;;;;4.97;100.00;102387.47;5072820;28;20861;-46
2022/11/30 02:54:34;;;;;;;81.40;72.50;;;;;;;4.98;100.00;102385.69;5072032;28;20541;-45
2022/11/30 02:57:02;;;;;;;84.53;72.10;;;;;;;4.97;100.00;102386.63;5072673;28;20441;-51
2022/11/30 02:59:31;;;;;;;93.50;74.77;;;;;;;4.98;100.00;102386.53;5072819;28;20812;-46
2022/11/30 03:01:59;;;;;;;86.83;76.33;;;;;;;4.99;100.00;102389.97;5072615;28;20802;-47
2022/11/30 03:04:26;;;;;;;83.87;73.30;;;;;;;4.98;100.00;102389.16;5071987;28;20536;-44
2022/11/30 03:06:54;;;;;;;81.83;73.13;;;;;;;4.98;100.00;102394.44;5072368;28;20438;-49
2022/11/30 03:09:22;;;;;;;83.47;72.83;;;;;;;4.94;100.00;102382.41;5072604;28;20441;-46
2022/11/30 03:11:50;;;;;;;82.53;73.80;;;;;;;4.96;100.00;102384.94;5072390;28;20459;-45
2022/11/30 03:14:17;;;;;;;83.33;73.70;;;;;;;4.96;100.00;102382.28;5071823;28;20512;-51
2022/11/30 03:16:46;;;;;;;85.87;74.50;;;;;;;4.96;100.00;102390.22;5072409;28;20808;-52
2022/11/30 03:19:14;;;;;;;81.20;72.23;;;;;;;4.92;100.00;102383.50;5072491;28;20442;-45
2022/11/30 03:21:42;;;;;;;83.87;71.57;;;;;;;4.92;100.00;102381.72;5072428;28;20458;-45
2022/11/30 03:24:09;;;;;;;80.60;72.00;;;;;;;4.90;100.00;102383.63;5071527;28;20996;-49
2022/11/30 03:26:37;;;;;;;81.83;73.43;;;;;;;4.92;100.00;102376.44;5072390;28;20426;-46
2022/11/30 03:29:05;;;;;;;87.33;77.53;;;;;;;4.93;100.00;102382.53;5072129;28;20464;-45
2022/11/30 03:31:32;;;;;;;87.07;75.87;;;;;;;4.90;100.00;102380.97;5072134;28;20450;-49
2022/11/30 03:34:01;;;;;;;84.83;75.03;;;;;;;4.89;100.00;102391.69;5071433;28;20557;-50
2022/11/30 03:36:29;;;;;;;82.03;72.90;;;;;;;4.89;100.00;102387.25;5072242;28;20501;-48
2022/11/30 03:38:56;;;;;;;82.83;73.90;;;;;;;4.87;100.00;102394.44;5072141;28;20438;-45
2022/11/30 03:41:24;;;;;;;82.27;73.30;;;;;;;4.85;100.00;102393.72;5071919;28;20490;-48
2022/11/30 03:43:52;;;;;;;78.30;69.50;;;;;;;4.89;100.00;102400.47;5071265;28;20458;-49
2022/11/30 03:46:19;;;;;;;83.10;73.90;;;;;;;4.87;100.00;102399.72;5071771;28;20438;-52
2022/11/30 03:48:47;;;;;;;78.27;67.80;;;;;;;4.87;100.00;102407.66;5071200;28;20484;-46
2022/11/30 03:51:16;;;;;;;81.53;70.70;;;;;;;4.89;100.00;102399.59;5071939;28;20457;-50
2022/11/30 03:53:43;;;;;;;79.60;71.13;;;;;;;4.87;100.00;102404.16;5071174;28;20976;-50
2022/11/30 03:56:13;;;;;;;80.13;70.30;;;;;;;4.85;100.00;102395.50;5071557;28;20921;-47
2022/11/30 03:58:41;;;;;;;76.90;68.77;;;;;;;4.81;100.00;102397.53;5071712;28;20476;-46
2022/11/30 04:01:11;;;;;;;78.70;70.00;;;;;;;4.84;100.00;102401.75;5071406;28;20492;-45
2022/11/30 04:03:39;;;;;;;75.87;67.37;;;;;;;4.86;100.00;102400.69;5071145;28;20418;-49
2022/11/30 04:06:08;;;;;;;75.90;67.53;;;;;;;4.91;100.00;102409.09;5072004;28;20434;-51
2022/11/30 04:08:38;;;;;;;88.23;76.03;;;;;;;4.89;100.00;102405.75;5071615;28;20457;-47
2022/11/30 04:11:06;;;;;;;80.33;71.77;;;;;;;4.88;100.00;102408.50;5071584;28;20430;-49
2022/11/30 04:13:35;;;;;;;79.97;70.77;;;;;;;4.90;100.00;102404.75;5070760;28;20434;-50
2022/11/30 04:16:03;;;;;;;79.33;70.67;;;;;;;4.92;100.00;102405.50;5071780;28;20442;-48
2022/11/30 04:18:32;;;;;;;83.33;74.43;;;;;;;4.93;100.00;102409.81;5071154;28;20446;-45
2022/11/30 04:21:01;;;;;;;81.20;72.83;;;;;;;4.93;100.00;102411.59;5071570;28;20434;-46
2022/11/30 04:23:31;;;;;;;80.67;72.03;;;;;;;4.94;100.00;102408.88;5070926;28;20501;-45
2022/11/30 04:26:02;;;;;;;80.33;71.97;;;;;;;4.95;100.00;102423.78;5071551;28;20426;-49
2022/11/30 04:28:29;;;;;;;80.20;71.53;;;;;;;4.92;100.00;102424.00;5071517;28;20430;-46
2022/11/30 04:30:59;;;;;;;79.63;72.23;;;;;;;4.95;100.00;102429.06;5071529;28;20430;-48
2022/11/30 04:33:27;;;;;;;78.30;70.30;;;;;;;4.96;100.00;102428.06;5071342;28;20842;-48
2022/11/30 04:35:57;;;;;;;77.80;68.27;;;;;;;4.94;100.00;102419.44;5051040;28;20475;-50
2022/11/30 04:38:25;;;;;;;75.20;67.17;;;;;;;4.96;100.00;102421.94;5051301;28;20961;-48
2022/11/30 04:40:53;;;;;;;79.00;70.30;;;;;;;4.98;100.00;102426.19;5051490;28;20470;-45
2022/11/30 04:43:23;;;;;;;83.70;69.70;;;;;;;4.98;100.00;102418.25;5050819;28;20456;-45
2022/11/30 04:45:51;;;;;;;76.03;68.07;;;;;;;4.96;100.00;102417.50;5048027;28;20505;-45
2022/11/30 04:48:19;;;;;;;72.90;65.50;;;;;;;4.98;100.00;102426.19;5046903;28;20413;-47
2022/11/30 04:50:47;;;;;;;73.70;65.90;;;;;;;4.97;100.00;102421.84;5031114;28;20436;-48
2022/11/30 04:53:14;;;;;;;75.23;66.97;;;;;;;4.99;100.00;102427.00;5030001;28;20452;-49
2022/11/30 04:55:42;;;;;;;73.00;65.13;;;;;;;5.00;100.00;102429.53;5040464;28;20513;-48
2022/11/30 04:58:09;;;;;;;78.53;68.17;;;;;;;5.00;100.00;102433.97;5040086;28;20432;-50
2022/11/30 05:00:38;;;;;;;73.53;66.00;;;;;;;5.00;100.00;102426.88;5031294;28;20452;-49
2022/11/30 05:03:06;;;;;;;75.27;67.70;;;;;;;5.04;100.00;102432.78;5030959;28;20510;-52
2022/11/30 05:05:34;;;;;;;75.97;68.13;;;;;;;5.03;100.00;102439.03;5030558;28;20471;-48
2022/11/30 05:08:01;;;;;;;80.50;72.57;;;;;;;5.02;100.00;102432.03;5031403;28;20432;-46
2022/11/30 05:10:32;;;;;;;79.67;71.00;;;;;;;5.02;100.00;102442.63;5031185;28;21033;-45
2022/11/30 05:12:59;;;;;;;71.80;64.23;;;;;;;5.02;100.00;102443.47;5031148;28;20498;-48
2022/11/30 05:15:27;;;;;;;76.87;66.77;;;;;;;5.03;100.00;102434.59;5030517;28;20484;-48
2022/11/30 05:17:59;;;;;;;86.67;72.97;;;;;;;5.05;100.00;102444.22;5031270;28;20440;-45
2022/11/30 05:20:27;;;;;;;81.80;71.03;;;;;;;5.03;100.00;102447.81;5031066;28;20444;-46
2022/11/30 05:22:55;;;;;;;74.93;66.67;;;;;;;5.04;100.00;102443.38;5031094;28;20530;-47
2022/11/30 05:25:23;;;;;;;77.00;68.80;;;;;;;5.05;100.00;102452.97;5030337;28;20499;-46
2022/11/30 05:27:50;;;;;;;77.50;68.00;;;;;;;5.08;100.00;102446.63;5030942;28;20470;-47
2022/11/30 05:30:18;;;;;;;77.37;66.27;;;;;;;5.07;100.00;102444.91;5032097;28;20440;-45
2022/11/30 05:32:45;;;;;;;77.73;69.30;;;;;;;5.07;100.00;102455.50;5034323;28;20975;-46
2022/11/30 05:35:15;;;;;;;77.13;66.63;;;;;;;5.08;100.00;102460.66;5033643;28;20587;-46
2022/11/30 05:37:42;;;;;;;78.03;69.97;;;;;;;5.09;100.00;102458.84;5034707;28;20432;-47
2022/11/30 05:40:10;;;;;;;76.73;68.40;;;;;;;5.07;100.00;102459.00;5034578;28;20486;-45
2022/11/30 05:42:38;;;;;;;74.97;67.03;;;;;;;5.08;100.00;102462.47;5034335;28;20452;-51
2022/11/30 05:45:06;;;;;;;76.43;68.40;;;;;;;5.11;100.00;102467.53;5033496;28;20472;-48
2022/11/30 05:47:34;;;;;;;81.13;72.23;;;;;;;5.11;100.00;102468.34;5034526;28;20439;-49
2022/11/30 05:50:01;;;;;;;77.37;69.20;;;;;;;5.12;100.00;102472.69;5034423;28;20440;-48
2022/11/30 05:52:30;;;;;;;81.50;71.77;;;;;;;5.14;100.00;102469.94;5034174;28;20498;-48
2022/11/30 05:54:59;;;;;;;78.10;70.13;;;;;;;5.13;100.00;102466.44;5037962;28;20529;-46
2022/11/30 05:57:26;;;;;;;79.93;67.17;;;;;;;5.11;100.00;102468.34;5048623;28;20842;-49
2022/11/30 05:59:54;;;;;;;75.43;67.40;;;;;;;5.13;100.00;102462.97;5033868;28;20444;-45
2022/11/30 06:02:21;;;;;;;79.87;70.80;;;;;;;5.14;100.00;102465.47;5033949;28;20460;-48
2022/11/30 06:04:54;;;;;;;80.60;71.90;;;;;;;5.13;100.00;102466.44;5033360;28;20517;-45
2022/11/30 06:07:22;;;;;;;78.40;70.00;;;;;;;5.13;100.00;102473.53;5033927;28;20489;-45
2022/11/30 06:09:51;;;;;;;80.77;71.27;;;;;;;5.14;100.00;102472.59;5034072;28;20523;-48
2022/11/30 06:12:18;;;;;;;79.80;70.00;;;;;;;5.15;100.00;102476.88;5033766;28;20491;-48
2022/11/30 06:14:46;;;;;;;82.57;71.10;;;;;;;5.15;100.00;102474.25;5033204;28;20463;-45
2022/11/30 06:17:14;;;;;;;83.17;74.20;;;;;;;5.18;100.00;102484.59;5033837;28;20443;-46
2022/11/30 06:19:42;;;;;;;83.20;74.10;;;;;;;5.17;100.00;102480.28;5033739;28;20436;-48
2022/11/30 06:22:09;;;;;;;80.37;72.00;;;;;;;5.18;100.00;102482.78;5033600;28;20452;-47
2022/11/30 06:24:37;;;;;;;102.53;81.60;;;;;;;5.16;100.00;102490.00;5032815;28;20468;-49
2022/11/30 06:27:06;;;;;;;81.73;72.90;;;;;;;5.18;100.00;102497.81;5033410;28;20843;-45
2022/11/30 06:29:33;;;;;;;83.10;74.20;;;;;;;5.16;100.00;102489.16;5033587;28;20792;-45
2022/11/30 06:32:01;;;;;;;82.17;71.50;;;;;;;5.16;100.00;102492.66;5033421;28;20448;-48
2022/11/30 06:34:30;;;;;;;87.47;72.77;;;;;;;5.19;100.00;102496.84;5032709;28;20547;-48
2022/11/30 06:36:58;;;;;;;94.87;71.17;;;;;;;5.17;100.00;102494.31;5033238;28;20479;-45
2022/11/30 06:39:25;;;;;;;91.63;74.63;;;;;;;5.17;100.00;102498.78;5033115;28;20939;-45
2022/11/30 06:42:14;;;;;;;95.40;77.83;;;;;;;5.18;100.00;102505.75;5032971;28;20448;-46
2022/11/30 06:44:42;;;;;;;93.13;79.03;;;;;;;5.18;100.00;102508.38;5032457;28;20460;-47
2022/11/30 06:47:09;;;;;;;84.30;74.43;;;;;;;5.18;100.00;102501.31;5033181;28;20463;-47
2022/11/30 06:49:38;;;;;;;89.17;79.20;;;;;;;5.17;100.00;102498.78;5032953;28;20471;-48
2022/11/30 06:52:05;;;;;;;84.70;75.00;;;;;;;5.18;100.00;102500.44;5033303;28;20452;-48
2022/11/30 06:54:33;;;;;;;94.87;77.67;;;;;;;5.17;100.00;102502.25;5033599;28;20471;-48
2022/11/30 06:57:01;;;;;;;92.60;77.73;;;;;;;5.19;100.00;102504.78;5050931;28;20471;-49
2022/11/30 06:59:30;;;;;;;96.37;78.70;;;;;;;5.19;100.00;102507.44;5032984;28;20440;-47
2022/11/30 07:01:58;;;;;;;97.67;74.27;;;;;;;5.18;100.00;102511.88;5032861;28;20851;-47
2022/11/30 07:04:34;;;;;;;84.57;71.80;;;;;;;5.18;100.00;102514.53;5032616;28;20467;-46
2022/11/30 07:07:01;;;;;;;83.53;74.60;;;;;;;5.18;100.00;102517.16;5032803;28;20435;-45
2022/11/30 07:09:29;;;;;;;85.40;75.40;;;;;;;5.18;100.00;102514.53;5032782;28;20444;-45
2022/11/30 07:11:56;;;;;;;94.30;73.07;;;;;;;5.18;100.00;102516.31;5032569;28;20452;-45
2022/11/30 07:14:24;;;;;;;89.27;74.27;;;;;;;5.17;100.00;102517.31;5032078;28;20990;-45
2022/11/30 07:16:53;;;;;;;84.33;72.40;;;;;;;5.17;100.00;102522.59;5032317;28;20476;-47
2022/11/30 07:19:21;;;;;;;97.67;76.10;;;;;;;5.17;100.00;102519.94;5032638;28;20847;-44
2022/11/30 07:21:48;;;;;;;84.00;71.80;;;;;;;5.15;100.00;102516.56;5032526;28;20456;-45
2022/11/30 07:27:03;;;;;;;87.53;71.17;;;;;;;5.12;100.00;102514.16;5032342;28;20429;-44
2022/11/30 07:29:30;;;;;;;93.43;71.17;;;;;;;5.11;100.00;102518.59;5032448;28;20432;-47
2022/11/30 07:31:59;;;;;;;78.23;69.43;;;;;;;5.09;100.00;102528.47;5032302;28;20452;-47
2022/11/30 07:34:27;;;;;;;75.87;67.67;;;;;;;5.11;100.00;102528.34;5031790;28;20467;-46
2022/11/30 07:36:55;;;;;;;77.90;66.97;;;;;;;5.12;100.00;102524.72;5031983;28;21002;-45
2022/11/30 07:39:23;;;;;;;75.57;67.80;;;;;;;5.15;100.00;102527.97;5032064;28;20443;-45
2022/11/30 07:41:50;;;;;;;76.93;68.67;;;;;;;5.18;100.00;102533.03;5031951;28;20491;-45
2022/11/30 07:44:18;;;;;;;78.20;69.63;;;;;;;5.17;100.00;102531.34;5031279;28;20473;-54
2022/11/30 07:46:45;;;;;;;79.20;69.17;;;;;;;5.18;100.00;102534.84;5032169;28;20428;-46
2022/11/30 07:49:14;;;;;;;81.77;69.73;;;;;;;5.21;100.00;102526.66;5032074;28;20493;-47
2022/11/30 07:51:42;;;;;;;76.43;68.27;;;;;;;5.21;100.00;102530.16;5031903;28;20866;-44
2022/11/30 07:54:10;;;;;;;77.70;68.80;;;;;;;5.23;100.00;102530.03;5030482;28;20468;-48
2022/11/30 07:56:37;;;;;;;77.33;68.60;;;;;;;5.24;100.00;102529.06;5050127;28;20529;-46
2022/11/30 07:59:05;;;;;;;78.30;67.93;;;;;;;5.26;100.00;102524.50;5033249;28;20432;-49
2022/11/30 08:01:33;;;;;;;85.43;68.97;;;;;;;5.27;100.00;102534.13;5031807;28;20490;-49
2022/11/30 08:04:01;;;;;;;81.93;69.80;;;;;;;5.29;100.00;102537.47;5031217;28;20464;-47
2022/11/30 08:06:31;;;;;;;72.97;65.00;;;;;;;5.27;100.00;102539.41;5031897;28;20432;-50
2022/11/30 08:09:00;;;;;;;77.33;69.00;;;;;;;5.30;100.00;102539.19;5031681;28;20800;-46
2022/11/30 08:11:30;;;;;;;75.60;67.13;;;;;;;5.32;100.00;102545.19;5031532;28;21021;-44
2022/11/30 08:13:57;;;;;;;76.93;64.90;;;;;;;5.28;100.00;102549.03;5031225;28;20495;-49
2022/11/30 08:16:27;;;;;;;73.60;65.87;;;;;;;5.32;100.00;102540.75;5031718;28;20475;-49
2022/11/30 08:18:55;;;;;;;74.87;66.87;;;;;;;5.32;100.00;102545.19;5031731;28;20487;-47
2022/11/30 08:21:24;;;;;;;77.07;68.57;;;;;;;5.34;100.00;102545.94;5031277;28;20463;-47
2022/11/30 08:23:55;;;;;;;74.43;66.20;;;;;;;5.34;100.00;102543.28;5031003;28;20463;-48
2022/11/30 08:26:24;;;;;;;77.77;66.20;;;;;;;5.35;100.00;102551.09;5031720;28;20428;-49
2022/11/30 08:28:54;;;;;;;85.17;70.77;;;;;;;5.36;100.00;102558.06;5031639;28;20463;-46
2022/11/30 08:31:24;;;;;;;81.90;70.43;;;;;;;5.41;100.00;102563.00;5031523;28;20513;-45
2022/11/30 08:33:56;;;;;;;77.53;69.17;;;;;;;5.42;100.00;102564.69;5030972;28;20456;-45
2022/11/30 08:36:25;;;;;;;89.97;73.70;;;;;;;5.45;100.00;102565.31;5031476;28;20885;-48
2022/11/30 08:38:54;;;;;;;85.50;75.10;;;;;;;5.45;100.00;102573.25;5031464;28;20424;-44
2022/11/30 08:41:22;;;;;;;85.10;75.40;;;;;;;5.42;100.00;102573.47;5031362;28;20458;-46
2022/11/30 08:43:50;;;;;;;90.53;71.47;;;;;;;5.43;100.00;102576.97;5030738;28;20947;-47
2022/11/30 08:46:20;;;;;;;87.40;73.07;;;;;;;5.42;100.00;102577.91;5031305;28;20970;-47
2022/11/30 08:49:08;;;;;;;80.83;68.33;;;;;;;5.42;100.00;102584.06;5031247;28;20471;-49
2022/11/30 08:51:53;;;;;;;81.93;69.50;;;;;;;5.40;100.00;102586.00;5031320;28;20451;-47
2022/11/30 08:54:44;;;;;;;78.13;69.50;;;;;;;5.43;100.00;102582.25;5032912;28;20499;-44
2022/11/30 08:57:31;;;;;;;77.57;69.50;;;;;;;5.49;100.00;102589.72;5045349;28;20553;-44
2022/11/30 08:59:59;;;;;;;81.47;73.17;;;;;;;5.48;100.00;102590.66;5051150;28;20941;-48
2022/11/30 09:02:27;;;;;;;84.57;74.73;;;;;;;5.49;100.00;102595.88;5050979;28;20977;-47
2022/11/30 09:04:54;;;;;;;90.50;73.97;;;;;;;5.50;100.00;102599.31;5052700;28;20477;-49
2022/11/30 09:07:22;;;;;;;83.10;73.70;;;;;;;5.55;100.00;102605.13;5054771;28;20434;-48
2022/11/30 09:09:51;;;;;;;80.27;71.50;;;;;;;5.60;100.00;102600.31;5055097;28;20435;-46
2022/11/30 09:12:18;;;;;;;84.47;71.13;;;;;;;5.56;100.00;102604.13;5055088;28;20513;-47
2022/11/30 09:14:47;;;;;;;92.70;75.53;;;;;;;5.63;100.00;102608.00;5054187;28;20470;-46
2022/11/30 09:17:24;;;;;;;90.03;79.83;;;;;;;5.62;100.00;102606.31;5054811;28;20528;-46
2022/11/30 09:19:51;;;;;;;94.57;84.23;;;;;;;5.70;100.00;102613.69;5054546;28;20489;-47
2022/11/30 09:22:19;;;;;;;110.87;91.63;;;;;;;5.68;100.00;102613.78;5054595;28;20462;-47
2022/11/30 09:24:47;;;;;;;122.43;97.13;;;;;;;5.73;100.00;102613.44;5053971;28;20463;-49
2022/11/30 09:27:16;;;;;;;101.77;85.93;;;;;;;5.78;100.00;102612.13;5054820;28;20523;-48
2022/11/30 09:29:43;;;;;;;85.30;76.30;;;;;;;5.81;100.00;102611.03;5054627;28;20439;-45
2022/11/30 09:32:11;;;;;;;88.83;78.97;;;;;;;5.85;100.00;102618.66;5054275;28;20451;-46
2022/11/30 09:34:39;;;;;;;90.00;74.67;;;;;;;5.85;100.00;102615.13;5053865;28;20996;-51
2022/11/30 09:37:06;;;;;;;90.27;74.40;;;;;;;5.90;100.00;102615.63;5054476;28;20532;-44
2022/11/30 09:39:34;;;;;;;93.37;79.07;;;;;;;5.90;100.00;102620.94;5054490;28;20439;-46
2022/11/30 09:42:27;;;;;;;96.40;78.80;;;;;;;5.88;100.00;102623.72;5054355;28;20451;-47
2022/11/30 09:45:02;;;;;;;87.47;73.30;;;;;;;5.85;100.00;102621.31;5053495;28;20521;-47
2022/11/30 09:47:44;;;;;;;95.73;77.47;;;;;;;5.85;100.00;102616.00;5054295;28;20995;-48
2022/11/30 09:50:14;;;;;;;83.80;73.17;;;;;;;5.88;100.00;102612.28;5054269;28;20794;-44
2022/11/30 09:52:46;;;;;;;94.70;76.07;;;;;;;5.91;100.00;102618.16;5054075;28;20454;-45
2022/11/30 09:55:22;;;;;;;94.07;80.00;;;;;;;5.91;100.00;102612.84;5053128;28;20986;-48
2022/11/30 09:57:54;;;;;;;88.27;73.30;;;;;;;5.91;100.00;102625.28;5045659;28;20502;-49
2022/11/30 10:00:23;;;;;;;89.40;76.97;;;;;;;5.95;100.00;102616.94;5034107;28;20790;-50
2022/11/30 10:02:52;;;;;;;86.20;75.43;;;;;;;5.99;100.00;102613.09;5033904;28;20879;-49
2022/11/30 10:05:22;;;;;;;86.37;70.97;;;;;;;5.98;100.00;102613.22;5033407;28;20514;-49
2022/11/30 10:08:13;;;;;;;87.53;75.83;;;;;;;5.94;100.00;102615.25;5033815;28;20420;-48
2022/11/30 10:10:51;;;;;;;86.90;73.37;;;;;;;5.85;100.00;102607.19;5033958;28;20494;-50
2022/11/30 10:13:35;;;;;;;90.67;76.43;;;;;;;5.78;100.00;102611.25;5033488;28;21038;-48
2022/11/30 10:16:16;;;;;;;79.93;69.90;;;;;;;5.78;100.00;102609.47;5032744;28;20440;-48
2022/11/30 10:19:00;;;;;;;90.90;75.40;;;;;;;5.82;100.00;102607.44;5033932;28;20483;-46
2022/11/30 10:21:46;;;;;;;95.00;73.40;;;;;;;5.83;100.00;102607.28;5034068;28;20850;-49
2022/11/30 10:24:28;;;;;;;93.50;75.37;;;;;;;5.80;100.00;102610.19;5032870;28;20471;-47
2022/11/30 10:26:58;;;;;;;89.90;73.80;;;;;;;5.71;100.00;102610.91;5033826;28;20435;-52
2022/11/30 10:29:32;;;;;;;92.50;75.90;;;;;;;5.65;100.00;102610.53;5033656;28;20439;-45
2022/11/30 10:32:00;;;;;;;86.93;73.90;;;;;;;5.56;100.00;102614.72;5033481;28;20815;-49
2022/11/30 10:34:33;;;;;;;84.77;75.03;;;;;;;5.58;100.00;102610.19;5040965;28;20471;-51
2022/11/30 10:37:05;;;;;;;99.07;76.53;;;;;;;5.54;100.00;102600.78;5053154;28;20424;-48
2022/11/30 10:39:40;;;;;;;94.03;75.07;;;;;;;5.53;100.00;102602.59;5053632;28;20514;-48
2022/11/30 10:42:12;;;;;;;89.00;77.30;;;;;;;5.56;100.00;102599.69;5053256;28;20451;-46
2022/11/30 10:44:45;;;;;;;100.30;78.10;;;;;;;5.66;100.00;102602.47;5042668;28;20459;-45
2022/11/30 10:47:19;;;;;;;103.00;75.30;;;;;;;5.72;100.00;102601.16;5033052;28;20847;-51
2022/11/30 10:49:50;;;;;;;102.43;76.43;;;;;;;5.74;100.00;102602.72;5033334;28;20498;-48
2022/11/30 10:52:23;;;;;;;87.10;75.87;;;;;;;5.81;100.00;102596.00;5033024;28;21041;-47
2022/11/30 10:54:54;;;;;;;94.60;80.03;;;;;;;5.87;100.00;102592.88;5043801;28;20504;-49
2022/11/30 10:57:31;;;;;;;96.67;78.33;;;;;;;5.86;100.00;102588.53;5052698;28;20498;-46
2022/11/30 11:00:05;;;;;;;90.10;76.03;;;;;;;5.88;100.00;102593.75;5052914;28;20458;-45
2022/11/30 11:02:39;;;;;;;87.77;78.30;;;;;;;5.86;100.00;102601.78;5052677;28;20528;-46
2022/11/30 11:05:19;;;;;;;93.27;78.47;;;;;;;5.90;100.00;102595.28;5038596;28;20470;-49
2022/11/30 11:07:58;;;;;;;85.27;76.13;;;;;;;5.88;100.00;102596.38;5032786;28;20420;-50
2022/11/30 11:10:35;;;;;;;89.87;74.60;;;;;;;5.91;100.00;102602.25;5032685;28;20941;-47
2022/11/30 11:13:04;;;;;;;93.57;76.80;;;;;;;5.91;100.00;102607.56;5033020;28;20452;-46
2022/11/30 11:15:34;;;;;;;94.40;80.77;;;;;;;5.96;100.00;102597.47;5049141;28;20471;-49
2022/11/30 11:18:24;;;;;;;95.47;78.40;;;;;;;5.96;100.00;102601.91;5052361;28;20471;-48
2022/11/30 11:21:01;;;;;;;99.10;76.30;;;;;;;6.00;100.00;102603.34;5052404;28;20492;-48
2022/11/30 11:23:36;;;;;;;102.93;77.57;;;;;;;5.95;100.00;102600.22;5051222;28;20510;-46
2022/11/30 11:26:05;;;;;;;91.00;76.80;;;;;;;5.94;100.00;102599.38;5032566;28;20428;-50